Time;durP1;ratioP1;P1;durP2;ratioP2;P2;SDS_P1;SDS_P2;PMS_P1;PMS_P2;Temp;Humidity;BMP_temperature;BMP_pressure;BME280_temperature;BME280_humidity;BME280_pressure;Samples;Min_cycle;Max_cycle;Signal;HPM_P1;HPM_P2
2022/01/09 00:00:12;;;;;;;;;2.75;1.50;;;;;7.60;70.20;99360.50;4997514;28;45381;-77
2022/01/09 00:02:38;;;;;;;;;4.00;2.50;;;;;7.59;69.10;99356.16;4980963;28;45385;-75
2022/01/09 00:05:04;;;;;;;;;5.00;1.00;;;;;7.67;70.03;99387.56;4997521;28;46569;-75
2022/01/09 00:07:29;;;;;;;;;5.50;1.50;;;;;7.42;70.17;99358.78;4997377;28;45416;-75
2022/01/09 00:09:56;;;;;;;;;2.00;2.00;;;;;7.51;69.95;99404.19;4997334;28;45502;-75
2022/01/09 00:12:23;;;;;;;;;5.50;3.00;;;;;7.55;69.57;99405.97;4980409;28;45472;-76
2022/01/09 00:14:48;;;;;;;;;2.75;1.00;;;;;7.50;70.41;99408.56;4996612;28;47275;-76
2022/01/09 00:17:14;;;;;;;;;5.25;1.25;;;;;7.46;69.75;99403.34;4997719;28;45245;-75
2022/01/09 00:19:40;;;;;;;;;1.00;1.00;;;;;7.39;69.81;99415.59;4997210;28;45323;-76
2022/01/09 00:22:06;;;;;;;;;3.50;1.00;;;;;7.25;70.38;99405.09;4997717;28;45203;-75
2022/01/09 00:24:31;;;;;;;;;4.25;1.25;;;;;7.28;70.72;99422.56;4996958;28;46711;-76
2022/01/09 00:26:57;;;;;;;;;5.00;2.00;;;;;7.24;70.65;99419.06;4997546;28;45202;-76
2022/01/09 00:29:22;;;;;;;;;1.25;0.00;;;;;7.16;70.41;99407.72;4995979;28;45284;-76
2022/01/09 00:31:48;;;;;;;;;3.00;3.00;;;;;7.15;70.59;99413.84;4980006;28;45376;-76
2022/01/09 00:34:14;;;;;;;;;5.75;1.75;;;;;7.15;70.03;99438.28;4996909;28;46576;-77
2022/01/09 00:36:39;;;;;;;;;2.00;1.00;;;;;7.12;71.05;99445.28;4997665;28;45285;-77
2022/01/09 00:39:05;;;;;;;;;6.50;2.25;;;;;7.05;70.73;99439.16;4997252;28;45273;-76
2022/01/09 00:41:30;;;;;;;;;1.00;1.00;;;;;6.98;71.01;99433.91;4997000;28;45684;-76
2022/01/09 00:43:56;;;;;;;;;1.00;1.00;;;;;7.05;70.92;99457.47;4996930;28;47068;-76
2022/01/09 00:46:22;;;;;;;;;2.25;2.00;;;;;7.03;71.01;99456.59;4996858;28;45491;-76
2022/01/09 00:48:47;;;;;;;;;2.25;1.00;;;;;6.99;71.80;99451.38;4997008;28;45407;-77
2022/01/09 00:51:13;;;;;;;;;1.50;1.00;;;;;7.00;72.21;99479.31;4997194;28;45202;-76
2022/01/09 00:53:38;;;;;;;;;1.25;1.25;;;;;6.99;72.25;99482.78;4997011;28;46195;-75
2022/01/09 00:56:04;;;;;;;;;6.25;3.00;;;;;6.80;72.08;99451.34;4996787;28;45265;-77
2022/01/09 00:58:29;;;;;;;;;5.25;1.50;;;;;6.90;71.59;99478.41;4996803;28;45155;-76
2022/01/09 01:00:55;;;;;;;;;9.50;3.00;;;;;6.93;72.27;99488.00;4997316;28;45155;-77
2022/01/09 01:03:21;;;;;;;;;2.50;2.50;;;;;6.89;71.10;99489.75;4999712;28;45781;-75
2022/01/09 01:05:46;;;;;;;;;3.00;1.00;;;;;6.90;71.81;99520.31;4999995;28;45296;-76
2022/01/09 01:08:12;;;;;;;;;1.00;1.00;;;;;6.89;70.59;99520.28;5000524;28;45249;-77
2022/01/09 01:10:38;;;;;;;;;1.50;1.00;;;;;6.83;70.14;99510.69;5000064;28;45453;-77
2022/01/09 01:13:04;;;;;;;;;3.50;2.00;;;;;6.76;70.49;99508.91;4999824;28;46154;-77
2022/01/09 01:15:29;;;;;;;;;2.25;1.00;;;;;6.88;69.64;99539.47;5000193;28;45316;-77
2022/01/09 01:17:55;;;;;;;;;5.00;1.00;;;;;6.80;69.12;99540.34;4982039;28;45319;-76
2022/01/09 01:20:22;;;;;;;;;2.75;1.00;;;;;6.79;69.84;99540.31;4999626;28;45570;-76
2022/01/09 01:22:50;;;;;;;;;0.75;0.50;;;;;6.88;69.73;99558.66;5000386;28;45535;-76
2022/01/09 01:25:17;;;;;;;;;2.00;1.00;;;;;6.89;69.47;99567.38;4999863;28;45318;-77
2022/01/09 01:27:43;;;;;;;;;1.75;1.75;;;;;6.71;69.69;99535.06;5000292;28;45422;-77
2022/01/09 01:30:09;;;;;;;;;1.75;1.75;;;;;6.79;69.16;99567.38;5000159;28;45419;-77
2022/01/09 01:32:34;;;;;;;;;6.00;2.00;;;;;6.79;70.05;99577.84;4999452;28;46317;-76
2022/01/09 01:35:00;;;;;;;;;2.25;0.75;;;;;6.78;70.31;99583.06;4999737;28;45250;-77
2022/01/09 01:37:25;;;;;;;;;1.00;0.25;;;;;6.56;70.45;99563.78;4999359;28;45423;-77
2022/01/09 01:39:51;;;;;;;;;2.75;1.25;;;;;6.56;71.07;99566.41;5000009;28;45318;-77
2022/01/09 01:42:17;;;;;;;;;2.00;2.00;;;;;6.72;70.33;99596.13;4999832;28;45400;-77
2022/01/09 01:44:49;;;;;;;;;2.75;1.00;;;;;6.86;70.53;99620.63;4999436;28;45230;-78
2022/01/09 01:47:18;;;;;;;;;2.00;0.00;;;;;6.97;70.39;99625.88;4999043;28;45466;-77
2022/01/09 01:49:44;;;;;;;;;0.50;0.50;;;;;6.75;72.09;99588.28;5000233;28;45283;-76
2022/01/09 01:52:10;;;;;;;;;2.75;2.00;;;;;6.96;71.68;99639.84;4999050;28;46031;-75
2022/01/09 01:54:36;;;;;;;;;2.75;1.25;;;;;6.92;72.97;99638.97;4999630;28;45423;-77
2022/01/09 01:57:03;;;;;;;;;0.50;0.50;;;;;6.95;73.75;99695.72;4999722;28;45336;-78
2022/01/09 01:59:29;;;;;;;;;2.75;1.00;;;;;6.72;74.57;99641.50;4999816;28;45533;-75
2022/01/09 02:01:54;;;;;;;;;5.00;2.00;;;;;6.60;76.87;99649.25;4999706;28;46165;-76
2022/01/09 02:04:20;;;;;;;;;1.00;1.00;;;;;6.33;76.58;99634.31;4999650;28;45259;-78
2022/01/09 02:06:45;;;;;;;;;5.00;3.00;;;;;6.39;76.97;99642.16;4999656;28;45371;-76
2022/01/09 02:09:11;;;;;;;;;1.50;1.50;;;;;6.24;78.30;99642.09;4999559;28;45429;-78
2022/01/09 02:11:38;;;;;;;;;2.00;1.00;;;;;6.23;78.32;99640.31;4998982;28;46365;-78
2022/01/09 02:14:03;;;;;;;;;2.00;0.25;;;;;6.32;78.21;99678.72;4998096;28;45298;-75
2022/01/09 02:16:29;;;;;;;;;4.50;1.00;;;;;5.95;77.40;99631.38;4999407;28;45554;-76
2022/01/09 02:18:57;;;;;;;;;1.75;1.75;;;;;6.30;77.17;99694.41;4999496;28;45254;-73
2022/01/09 02:21:23;;;;;;;;;2.00;2.00;;;;;6.38;77.32;99708.44;4999686;28;46206;-76
2022/01/09 02:23:49;;;;;;;;;2.00;0.75;;;;;6.37;76.93;99701.44;4999349;28;45491;-76
2022/01/09 02:26:19;;;;;;;;;2.00;0.50;;;;;6.46;76.34;99722.44;4999160;28;45444;-76
2022/01/09 02:28:46;;;;;;;;;0.00;0.00;;;;;6.41;76.94;99702.34;4999257;28;45323;-76
2022/01/09 02:31:11;;;;;;;;;2.00;1.00;;;;;6.48;76.71;99707.63;4998687;28;45403;-78
2022/01/09 02:33:37;;;;;;;;;5.00;3.00;;;;;6.40;76.76;99704.06;4999159;28;45262;-75
2022/01/09 02:36:03;;;;;;;;;1.00;0.00;;;;;6.51;76.05;99727.69;4999291;28;45263;-78
2022/01/09 02:38:28;;;;;;;;;1.00;0.00;;;;;6.46;74.81;99696.28;4999356;28;45479;-78
2022/01/09 02:40:54;;;;;;;;;0.50;0.50;;;;;6.28;74.68;99676.09;4981198;28;46374;-77
2022/01/09 02:43:21;;;;;;;;;1.50;0.00;;;;;6.39;74.02;99710.19;4998968;28;45318;-77
2022/01/09 02:45:53;;;;;;;;;2.00;1.00;;;;;6.36;73.63;99728.47;4999032;28;45462;-78
2022/01/09 02:48:19;;;;;;;;;1.75;1.00;;;;;6.45;73.76;99739.00;4999338;28;45325;-77
2022/01/09 02:50:58;;;;;;;;;2.00;0.00;;;;;6.45;73.94;99728.53;4997974;28;45325;-76
2022/01/09 02:53:23;;;;;;;;;2.00;2.00;;;;;6.37;73.86;99698.84;4998876;28;45181;-78
2022/01/09 02:55:49;;;;;;;;;1.00;0.00;;;;;6.51;73.07;99726.00;4999000;28;45390;-77
2022/01/09 02:58:15;;;;;;;;;1.00;0.00;;;;;6.54;73.95;99728.63;4999184;28;45351;-78
2022/01/09 03:00:43;;;;;;;;;0.00;0.00;;;;;6.50;73.75;99728.56;4998489;28;45439;-78
2022/01/09 03:03:09;;;;;;;;;0.25;0.00;;;;;6.34;73.07;99726.72;4998579;28;45914;-78
2022/01/09 03:05:35;;;;;;;;;1.75;0.00;;;;;6.44;73.10;99757.31;4998751;28;45340;-77
2022/01/09 03:08:01;;;;;;;;;6.00;1.00;;;;;6.51;72.95;99754.78;4998710;28;45388;-77
2022/01/09 03:10:27;;;;;;;;;0.50;0.50;;;;;6.49;73.58;99763.44;4998614;28;45426;-76
2022/01/09 03:12:56;;;;;;;;;0.25;0.25;;;;;6.18;74.32;99723.97;4998427;28;45344;-77
2022/01/09 03:15:22;;;;;;;;;0.00;0.00;;;;;6.42;74.22;99774.72;4998577;28;45329;-77
2022/01/09 03:17:47;;;;;;;;;2.00;0.25;;;;;6.22;74.30;99736.19;4998644;28;45345;-74
2022/01/09 03:20:18;;;;;;;;;1.50;1.50;;;;;6.35;74.40;99757.25;4997572;28;45528;-76
2022/01/09 03:22:44;;;;;;;;;2.25;1.25;;;;;6.30;73.49;99749.34;4998298;28;45223;-76
2022/01/09 03:25:10;;;;;;;;;0.50;0.50;;;;;6.44;73.50;99767.78;4980111;28;45524;-79
2022/01/09 03:27:41;;;;;;;;;3.00;1.00;;;;;6.26;74.03;99734.50;4998682;28;45261;-74
2022/01/09 03:30:08;;;;;;;;;0.00;0.00;;;;;6.35;73.58;99731.97;4998129;28;45445;-77
2022/01/09 03:32:35;;;;;;;;;0.00;0.00;;;;;6.45;73.26;99749.47;4998072;28;45396;-78
2022/01/09 03:35:01;;;;;;;;;2.00;1.00;;;;;6.56;73.75;99766.13;4998566;28;45387;-78
2022/01/09 03:37:26;;;;;;;;;2.00;2.00;;;;;6.62;73.58;99764.44;4997693;28;45325;-78
2022/01/09 03:39:52;;;;;;;;;1.50;1.00;;;;;6.59;73.74;99770.50;4998069;28;46610;-76
2022/01/09 03:42:18;;;;;;;;;1.25;1.25;;;;;6.57;72.81;99799.28;4980489;28;45623;-77
2022/01/09 03:44:43;;;;;;;;;0.50;0.00;;;;;6.62;72.83;99795.84;4998050;28;45320;-77
2022/01/09 03:47:09;;;;;;;;;1.00;0.00;;;;;6.60;73.39;99808.88;4998280;28;45367;-76
2022/01/09 03:49:34;;;;;;;;;3.00;1.00;;;;;6.47;74.17;99812.28;4998006;28;46098;-75
2022/01/09 03:52:00;;;;;;;;;0.50;0.50;;;;;6.46;74.60;99803.53;4997708;28;45305;-77
2022/01/09 03:54:26;;;;;;;;;1.50;0.00;;;;;6.42;75.31;99819.19;4998167;28;45376;-77
2022/01/09 03:56:51;;;;;;;;;3.00;0.00;;;;;6.46;75.85;99837.56;4998134;28;45300;-78
2022/01/09 03:59:18;;;;;;;;;1.00;0.00;;;;;6.14;75.88;99782.34;4997537;28;45427;-75
2022/01/09 04:01:44;;;;;;;;;1.00;0.25;;;;;6.24;76.13;99820.78;4996028;28;45420;-76
2022/01/09 04:04:10;;;;;;;;;1.00;0.00;;;;;6.02;77.17;99789.16;4997744;28;45285;-76
2022/01/09 04:06:39;;;;;;;;;0.00;0.00;;;;;5.78;78.18;99768.84;4997764;28;45488;-77
2022/01/09 04:09:08;;;;;;;;;1.00;0.00;;;;;5.85;77.87;99807.22;4997696;28;45503;-77
2022/01/09 04:11:38;;;;;;;;;0.00;0.00;;;;;5.64;78.99;99781.72;4997801;28;45206;-78
2022/01/09 04:14:04;;;;;;;;;0.00;0.00;;;;;5.46;78.96;99752.78;4980027;28;45414;-76
2022/01/09 04:16:29;;;;;;;;;2.00;0.00;;;;;5.55;78.96;99792.06;4997959;28;45491;-76
2022/01/09 04:18:55;;;;;;;;;0.00;0.00;;;;;5.33;78.80;99746.53;4997442;28;45914;-77
2022/01/09 04:21:20;;;;;;;;;2.00;0.50;;;;;5.53;79.31;99797.28;4996915;28;45353;-78
2022/01/09 04:23:46;;;;;;;;;2.00;0.25;;;;;5.52;79.23;99805.97;4997334;28;45399;-74
2022/01/09 04:26:11;;;;;;;;;0.50;0.00;;;;;5.51;79.10;99808.59;4997817;28;45539;-77
2022/01/09 04:28:37;;;;;;;;;2.50;0.00;;;;;5.50;79.87;99807.72;4997231;28;45399;-78
2022/01/09 04:31:02;;;;;;;;;5.25;1.00;;;;;5.60;80.10;99826.97;4997061;28;45394;-77
2022/01/09 04:33:28;;;;;;;;;2.00;1.75;;;;;5.69;79.48;99825.38;4997601;28;45250;-77
2022/01/09 04:35:53;;;;;;;;;1.25;1.25;;;;;5.46;78.10;99763.22;4980200;28;45607;-77
2022/01/09 04:38:18;;;;;;;;;0.25;0.00;;;;;5.77;77.34;99793.19;5000211;28;46156;-76
2022/01/09 04:40:44;;;;;;;;;0.00;0.00;;;;;5.90;77.72;99798.63;5000444;28;45236;-77
2022/01/09 04:43:10;;;;;;;;;2.00;1.00;;;;;5.88;76.93;99795.09;5000783;28;45362;-76
2022/01/09 04:45:36;;;;;;;;;3.00;2.00;;;;;5.85;77.40;99794.16;5000241;28;45329;-77
2022/01/09 04:48:06;;;;;;;;;2.00;1.00;;;;;6.06;76.86;99812.75;5000242;28;46191;-77
2022/01/09 04:50:34;;;;;;;;;0.75;0.00;;;;;6.12;76.38;99822.38;5000236;28;45459;-77
2022/01/09 04:53:05;;;;;;;;;0.00;0.00;;;;;5.86;75.87;99768.06;5000303;28;45202;-76
2022/01/09 04:55:32;;;;;;;;;1.00;1.00;;;;;6.24;76.81;99827.75;5000479;28;45324;-76
2022/01/09 04:57:58;;;;;;;;;3.50;2.00;;;;;6.14;76.13;99787.56;5000152;28;46560;-76
2022/01/09 05:00:24;;;;;;;;;0.00;0.00;;;;;5.85;76.34;99742.78;4999536;28;45477;-77
2022/01/09 05:02:49;;;;;;;;;5.25;1.00;;;;;6.02;77.23;99803.09;5000415;28;45274;-78
2022/01/09 05:05:15;;;;;;;;;1.00;0.00;;;;;6.08;77.51;99821.47;5000828;28;45235;-77
2022/01/09 05:07:41;;;;;;;;;5.00;1.00;;;;;6.02;77.04;99813.56;4999988;28;45400;-78
2022/01/09 05:10:08;;;;;;;;;0.00;0.00;;;;;6.10;77.40;99826.72;5000413;28;45249;-77
2022/01/09 05:12:35;;;;;;;;;1.00;0.75;;;;;6.06;77.33;99814.50;5000526;28;45339;-78
2022/01/09 05:15:01;;;;;;;;;1.00;1.00;;;;;6.02;77.93;99812.69;4999713;28;45503;-78
2022/01/09 05:17:27;;;;;;;;;3.75;1.25;;;;;6.09;77.06;99828.47;5000689;28;46635;-74
2022/01/09 05:19:58;;;;;;;;;5.50;1.00;;;;;6.04;77.23;99819.69;4982870;28;45537;-74
2022/01/09 05:22:28;;;;;;;;;2.00;0.00;;;;;5.88;77.29;99775.94;5000573;28;45491;-76
2022/01/09 05:24:55;;;;;;;;;0.50;0.50;;;;;6.02;77.15;99792.66;5000230;28;45480;-77
2022/01/09 05:27:22;;;;;;;;;1.75;0.75;;;;;6.15;76.60;99827.66;4999813;28;45282;-78
2022/01/09 05:29:48;;;;;;;;;0.00;0.00;;;;;6.03;76.98;99794.41;4982297;28;46109;-77
2022/01/09 05:32:13;;;;;;;;;1.00;1.00;;;;;6.20;77.12;99818.13;4999986;28;45707;-78
2022/01/09 05:34:39;;;;;;;;;2.00;2.00;;;;;6.02;77.16;99778.69;4982385;28;45504;-77
2022/01/09 05:37:05;;;;;;;;;0.50;0.50;;;;;6.25;76.48;99822.53;4999647;28;46227;-77
2022/01/09 05:39:31;;;;;;;;;2.75;1.00;;;;;6.27;76.30;99820.81;4999869;28;45337;-77
2022/01/09 05:41:58;;;;;;;;;0.00;0.00;;;;;6.30;76.42;99812.09;4982254;28;45347;-78
2022/01/09 05:44:23;;;;;;;;;2.00;2.00;;;;;6.17;76.03;99778.88;4999599;28;45461;-77
2022/01/09 05:46:49;;;;;;;;;0.50;0.50;;;;;6.11;75.64;99756.13;4999433;28;45377;-77
2022/01/09 05:49:14;;;;;;;;;2.00;2.00;;;;;6.21;76.80;99771.03;4999876;28;45322;-76
2022/01/09 05:51:40;;;;;;;;;2.50;1.00;;;;;6.47;76.44;99815.75;4999599;28;45789;-74
2022/01/09 05:54:05;;;;;;;;;0.00;0.00;;;;;6.34;77.17;99797.34;5000102;28;45324;-76
2022/01/09 05:56:31;;;;;;;;;2.25;1.00;;;;;6.57;76.29;99843.75;4999260;28;45345;-77
2022/01/09 05:58:56;;;;;;;;;0.00;0.00;;;;;6.46;75.83;99820.97;4999165;28;45302;-75
2022/01/09 06:01:21;;;;;;;;;4.50;3.50;;;;;6.56;76.82;99856.84;4981333;28;45295;-76
2022/01/09 06:03:47;;;;;;;;;1.00;1.00;;;;;6.51;75.93;99838.50;4997670;28;45472;-76
2022/01/09 06:06:12;;;;;;;;;1.00;0.50;;;;;6.53;75.37;99851.59;4997238;28;46256;-77
2022/01/09 06:08:38;;;;;;;;;2.50;2.50;;;;;6.51;75.64;99838.50;4999048;28;45244;-75
2022/01/09 06:11:03;;;;;;;;;0.00;0.00;;;;;6.56;75.49;99847.25;4999316;28;45393;-75
2022/01/09 06:13:28;;;;;;;;;2.25;1.75;;;;;6.60;76.02;99844.66;4999598;28;45538;-76
2022/01/09 06:15:54;;;;;;;;;2.00;2.00;;;;;6.46;75.64;99823.59;4999206;28;45380;-77
2022/01/09 06:18:20;;;;;;;;;2.00;2.00;;;;;6.55;76.13;99845.50;4999815;28;45388;-77
2022/01/09 06:20:48;;;;;;;;;3.25;3.25;;;;;6.52;75.76;99842.84;4999408;28;45327;-76
2022/01/09 06:23:15;;;;;;;;;2.00;0.00;;;;;6.48;75.05;99838.44;4999447;28;45286;-75
2022/01/09 06:25:40;;;;;;;;;1.00;1.00;;;;;6.39;75.50;99835.75;4999224;28;46615;-77
2022/01/09 06:28:06;;;;;;;;;1.50;1.50;;;;;6.50;75.39;99851.53;4999075;28;45217;-76
2022/01/09 06:30:31;;;;;;;;;1.50;1.00;;;;;6.51;76.55;99854.19;4999272;28;45395;-77
2022/01/09 06:32:56;;;;;;;;;1.00;1.00;;;;;6.49;75.21;99834.09;4999048;28;45539;-76
2022/01/09 06:35:22;;;;;;;;;0.75;0.75;;;;;6.49;75.42;99855.00;4998907;28;47096;-77
2022/01/09 06:37:48;;;;;;;;;0.00;0.00;;;;;6.39;74.70;99838.34;4998843;28;45238;-76
2022/01/09 06:40:14;;;;;;;;;0.75;0.75;;;;;6.28;75.01;99821.69;4998860;28;45297;-77
2022/01/09 06:42:39;;;;;;;;;1.00;1.00;;;;;6.42;75.62;99846.25;4999168;28;45380;-76
2022/01/09 06:45:05;;;;;;;;;1.00;1.00;;;;;6.38;75.21;99838.34;4998729;28;46154;-76
2022/01/09 06:47:31;;;;;;;;;4.00;1.50;;;;;6.45;76.03;99861.09;4998563;28;45336;-74
2022/01/09 06:49:58;;;;;;;;;4.50;1.50;;;;;6.28;76.27;99834.75;4999025;28;45398;-76
2022/01/09 06:52:24;;;;;;;;;0.25;0.25;;;;;6.33;75.92;99850.47;4998656;28;45555;-75
2022/01/09 06:54:49;;;;;;;;;0.00;0.00;;;;;6.41;75.91;99862.78;4998533;28;46030;-77
2022/01/09 06:57:15;;;;;;;;;2.75;1.00;;;;;6.41;74.80;99857.53;4998631;28;45455;-77
2022/01/09 06:59:40;;;;;;;;;0.25;0.25;;;;;6.41;75.42;99851.44;4997313;28;45343;-77
2022/01/09 07:02:06;;;;;;;;;0.00;0.00;;;;;6.46;75.28;99858.50;4989698;28;45345;-77
2022/01/09 07:04:31;;;;;;;;;3.00;2.00;;;;;6.45;74.85;99861.09;4961243;28;47103;-77
2022/01/09 07:06:56;;;;;;;;;2.00;0.00;;;;;6.49;75.22;99863.75;4978975;28;45468;-78
2022/01/09 07:09:23;;;;;;;;;3.00;0.00;;;;;6.27;75.95;99827.78;4996990;28;45662;-77
2022/01/09 07:11:49;;;;;;;;;0.25;0.25;;;;;6.39;75.08;99843.59;4996924;28;45605;-77
2022/01/09 07:14:14;;;;;;;;;0.75;0.00;;;;;6.42;75.10;99850.56;4996973;28;46335;-76
2022/01/09 07:16:39;;;;;;;;;0.00;0.00;;;;;6.36;76.62;99840.94;4997945;28;45428;-77
2022/01/09 07:19:05;;;;;;;;;0.00;0.00;;;;;6.47;75.70;99864.59;4997648;28;45301;-77
2022/01/09 07:21:30;;;;;;;;;1.00;0.00;;;;;6.47;75.44;99865.47;4998445;28;45397;-76
2022/01/09 07:23:56;;;;;;;;;2.00;0.50;;;;;6.36;75.23;99845.31;4980477;28;48341;-77
2022/01/09 07:26:21;;;;;;;;;0.00;0.00;;;;;6.34;74.98;99850.53;4998489;28;45329;-77
2022/01/09 07:28:46;;;;;;;;;0.00;0.00;;;;;6.38;75.10;99849.69;4998296;28;45322;-77
2022/01/09 07:31:12;;;;;;;;;1.00;0.00;;;;;6.47;75.48;99880.28;4998397;28;45522;-76
2022/01/09 07:33:37;;;;;;;;;0.00;0.00;;;;;6.37;75.51;99852.28;4980074;28;46117;-76
2022/01/09 07:36:03;;;;;;;;;0.00;0.00;;;;;6.35;75.52;99859.25;4998224;28;45308;-77
2022/01/09 07:38:28;;;;;;;;;2.00;0.50;;;;;6.20;76.19;99844.25;4998354;28;45324;-77
2022/01/09 07:40:54;;;;;;;;;0.00;0.00;;;;;6.30;77.29;99856.56;4998651;28;45332;-76
2022/01/09 07:43:20;;;;;;;;;0.00;0.00;;;;;6.34;76.75;99862.72;4998029;28;45365;-78
2022/01/09 07:45:46;;;;;;;;;0.50;0.00;;;;;6.21;76.07;99844.28;4998123;28;45373;-77
2022/01/09 07:48:12;;;;;;;;;1.25;0.25;;;;;6.33;75.66;99877.56;4980533;28;45313;-77
2022/01/09 07:50:37;;;;;;;;;0.00;0.00;;;;;6.22;75.47;99853.88;4997946;28;45664;-77
2022/01/09 07:53:03;;;;;;;;;0.00;0.00;;;;;6.25;76.33;99851.31;4998185;28;45950;-77
2022/01/09 07:55:28;;;;;;;;;0.00;0.00;;;;;6.27;76.11;99859.16;4997927;28;45390;-77
2022/01/09 07:57:54;;;;;;;;;2.00;1.00;;;;;6.21;77.06;99869.53;4998068;28;45294;-78
2022/01/09 08:00:20;;;;;;;;;0.00;0.00;;;;;6.21;76.48;99864.31;4997522;28;45458;-77
2022/01/09 08:02:46;;;;;;;;;0.00;0.00;;;;;6.27;76.37;99867.00;4997386;28;46681;-77
2022/01/09 08:05:12;;;;;;;;;1.00;0.00;;;;;5.99;77.02;99830.09;4997648;28;45427;-78
2022/01/09 08:07:38;;;;;;;;;1.00;1.00;;;;;6.27;76.78;99862.66;4979985;28;45416;-78
2022/01/09 08:10:05;;;;;;;;;1.50;1.00;;;;;6.12;77.11;99846.78;4998214;28;45174;-77
2022/01/09 08:12:30;;;;;;;;;1.00;0.00;;;;;6.12;78.61;99852.00;4997563;28;45410;-77
2022/01/09 08:14:56;;;;;;;;;0.50;0.00;;;;;6.06;77.66;99832.78;4997290;28;45226;-74
2022/01/09 08:17:22;;;;;;;;;0.00;0.00;;;;;6.05;78.33;99849.31;4996421;28;45445;-76
2022/01/09 08:19:47;;;;;;;;;0.00;0.00;;;;;6.11;77.88;99867.69;4997439;28;45500;-77
2022/01/09 08:22:13;;;;;;;;;0.00;0.00;;;;;5.98;77.56;99854.50;4997752;28;45261;-78
2022/01/09 08:24:39;;;;;;;;;0.00;0.00;;;;;6.12;78.02;99888.63;4996910;28;45463;-77
2022/01/09 08:27:06;;;;;;;;;0.00;0.00;;;;;6.10;77.51;99877.28;4997630;28;45338;-78
2022/01/09 08:29:31;;;;;;;;;1.25;0.00;;;;;5.89;77.77;99833.44;4996964;28;45682;-77
2022/01/09 08:31:57;;;;;;;;;0.00;0.00;;;;;6.18;77.38;99870.41;4996624;28;46415;-76
2022/01/09 08:34:22;;;;;;;;;0.00;0.00;;;;;6.17;76.71;99875.63;4996645;28;45482;-77
2022/01/09 08:36:48;;;;;;;;;0.25;0.25;;;;;6.14;77.15;99866.00;4994216;28;45549;-73
2022/01/09 08:39:14;;;;;;;;;0.00;0.00;;;;;6.18;76.83;99862.56;4977403;28;45531;-75
2022/01/09 08:41:40;;;;;;;;;0.00;0.00;;;;;6.28;76.65;99884.44;4996939;28;46153;-77
2022/01/09 08:44:07;;;;;;;;;1.25;0.25;;;;;6.31;76.86;99886.22;4997070;28;45224;-76
2022/01/09 08:46:35;;;;;;;;;1.00;1.00;;;;;6.34;76.70;99891.50;4995858;28;45372;-77
2022/01/09 08:49:01;;;;;;;;;0.00;0.00;;;;;6.37;76.41;99883.69;4996886;28;45376;-76
2022/01/09 08:51:28;;;;;;;;;1.00;0.75;;;;;6.37;76.08;99876.72;4994969;28;45522;-77
2022/01/09 08:53:53;;;;;;;;;1.75;1.25;;;;;6.38;76.54;99869.72;4994907;28;45438;-76
2022/01/09 08:56:24;;;;;;;;;1.00;1.00;;;;;6.47;76.02;99873.31;4997196;28;45356;-78
2022/01/09 08:58:51;;;;;;;;;0.00;0.00;;;;;6.41;75.60;99856.66;4995110;28;45550;-75
2022/01/09 09:01:16;;;;;;;;;0.00;0.00;;;;;6.51;75.48;99882.06;4995083;28;46371;-76
2022/01/09 09:03:43;;;;;;;;;1.00;1.00;;;;;6.63;75.42;99883.94;4995905;28;45447;-76
2022/01/09 09:06:12;;;;;;;;;0.00;0.00;;;;;6.66;76.27;99877.00;4996303;28;45512;-77
2022/01/09 09:08:39;;;;;;;;;1.00;1.00;;;;;6.70;76.05;99886.63;4995337;28;45440;-74
2022/01/09 09:11:06;;;;;;;;;1.00;1.00;;;;;6.72;75.46;99891.88;4995469;28;45420;-76
2022/01/09 09:13:32;;;;;;;;;0.75;0.75;;;;;6.50;74.97;99859.38;4994896;28;45455;-74
2022/01/09 09:15:57;;;;;;;;;0.00;0.00;;;;;6.67;75.61;99897.06;4996062;28;45501;-79
2022/01/09 09:18:27;;;;;;;;;1.75;0.25;;;;;6.44;76.01;99859.34;4996969;28;45430;-76
2022/01/09 09:20:53;;;;;;;;;0.75;0.75;;;;;6.46;76.01;99853.25;4992278;28;45637;-75
2022/01/09 09:23:19;;;;;;;;;0.75;0.75;;;;;6.90;76.13;99915.59;4995695;28;45752;-74
2022/01/09 09:25:45;;;;;;;;;0.50;0.50;;;;;6.82;76.45;99902.44;4998635;28;45369;-76
2022/01/09 09:28:10;;;;;;;;;0.00;0.00;;;;;6.64;75.33;99852.56;4998439;28;45439;-75
2022/01/09 09:30:36;;;;;;;;;2.00;0.50;;;;;7.04;76.43;99918.34;4996943;28;46481;-72
2022/01/09 09:33:03;;;;;;;;;1.75;0.50;;;;;7.05;76.45;99926.19;4997942;28;45558;-77
2022/01/09 09:35:29;;;;;;;;;1.25;1.00;;;;;6.99;75.91;99917.44;4999155;28;45495;-77
2022/01/09 09:37:54;;;;;;;;;2.50;1.00;;;;;6.78;76.99;99873.59;4999878;28;45430;-77
2022/01/09 09:40:20;;;;;;;;;2.00;2.00;;;;;6.78;76.76;99891.91;4999130;28;45477;-77
2022/01/09 09:42:46;;;;;;;;;0.50;0.50;;;;;6.92;77.21;99911.25;4999978;28;45222;-77
2022/01/09 09:45:13;;;;;;;;;3.00;1.00;;;;;6.94;77.10;99921.75;4999833;28;45224;-77
2022/01/09 09:47:40;;;;;;;;;0.00;0.00;;;;;6.93;77.99;99918.25;5000180;28;45345;-77
2022/01/09 09:50:09;;;;;;;;;1.75;1.75;;;;;6.94;78.03;99932.22;4999024;28;47715;-77
2022/01/09 09:52:35;;;;;;;;;2.00;1.00;;;;;6.71;77.93;99885.78;4998359;28;45692;-76
2022/01/09 09:55:01;;;;;;;;;2.00;2.00;;;;;6.92;78.19;99949.66;4999818;28;45356;-77
2022/01/09 09:57:27;;;;;;;;;0.75;0.75;;;;;6.85;76.44;99933.00;4999906;28;45258;-77
2022/01/09 10:00:11;;;;;;;;;2.25;2.25;;;;;6.77;78.16;99927.69;4999344;28;45687;-77
2022/01/09 10:02:51;;;;;;;;;3.00;3.00;;;;;6.76;78.13;99938.16;4999408;28;45713;-77
2022/01/09 10:05:22;;;;;;;;;1.00;1.00;;;;;6.81;79.00;99947.81;4998964;28;45341;-77
2022/01/09 10:07:48;;;;;;;;;0.25;0.25;;;;;6.55;78.17;99904.78;5000023;28;45210;-77
2022/01/09 10:10:16;;;;;;;;;0.00;0.00;;;;;6.72;77.90;99937.25;4999113;28;45497;-77
2022/01/09 10:12:44;;;;;;;;;1.50;1.50;;;;;6.85;77.62;99961.81;4999370;28;45471;-76
2022/01/09 10:15:13;;;;;;;;;2.25;2.25;;;;;6.78;77.21;99937.28;4999216;28;45581;-77
2022/01/09 10:17:47;;;;;;;;;12.50;5.50;;;;;6.57;76.97;99911.78;4999505;28;45407;-77
2022/01/09 10:20:23;;;;;;;;;2.25;2.00;;;;;6.82;76.85;99948.69;4998944;28;45784;-76
2022/01/09 10:22:51;;;;;;;;;4.50;2.75;;;;;6.72;78.29;99925.91;4998162;28;45210;-76
2022/01/09 10:25:37;;;;;;;;;1.50;1.50;;;;;6.83;78.23;99961.78;4996618;28;46516;-77
2022/01/09 10:28:17;;;;;;;;;2.25;2.25;;;;;6.61;78.35;99907.50;4995056;28;45462;-74
2022/01/09 10:30:52;;;;;;;;;6.75;5.00;;;;;6.55;77.73;99896.94;4999187;28;46179;-75
2022/01/09 10:33:21;;;;;;;;;5.00;5.00;;;;;6.37;77.42;99840.09;4994094;28;45416;-75
2022/01/09 10:35:48;;;;;;;;;4.00;4.00;;;;;7.01;76.92;99947.13;4997119;28;45416;-76
2022/01/09 10:38:27;;;;;;;;;1.75;1.00;;;;;7.08;76.48;99956.78;4997338;28;45443;-75
2022/01/09 10:41:03;;;;;;;;;10.00;3.00;;;;;7.04;77.17;99936.66;4997920;28;45582;-75
2022/01/09 10:43:41;;;;;;;;;2.50;2.50;;;;;7.23;77.76;99951.66;4997662;28;45178;-76
2022/01/09 10:46:08;;;;;;;;;3.00;3.00;;;;;7.08;77.80;99912.28;4996809;28;45455;-76
2022/01/09 10:48:41;;;;;;;;;5.00;3.00;;;;;7.35;76.41;99937.78;4997621;28;45455;-74
2022/01/09 10:51:08;;;;;;;;;2.00;2.00;;;;;6.97;76.97;99885.09;4996375;28;46060;-76
2022/01/09 10:53:39;;;;;;;;;2.75;2.75;;;;;6.93;76.87;99899.91;4996558;28;45514;-76
2022/01/09 10:56:13;;;;;;;;;7.00;3.00;;;;;7.31;77.28;99986.66;4996811;28;45600;-76
2022/01/09 10:58:54;;;;;;;;;4.50;4.50;;;;;7.24;76.74;99981.34;4994945;28;45703;-74
2022/01/09 11:01:37;;;;;;;;;6.00;4.00;;;;;7.21;77.14;99976.97;4997126;28;45904;-75
2022/01/09 11:04:06;;;;;;;;;3.00;3.00;;;;;7.20;77.10;99977.84;4996895;28;45471;-74
2022/01/09 11:06:34;;;;;;;;;3.00;3.00;;;;;7.15;77.02;99977.78;4997224;28;45286;-72
2022/01/09 11:09:04;;;;;;;;;2.25;1.75;;;;;6.78;76.06;99921.59;4997200;28;45620;-74
2022/01/09 11:11:35;;;;;;;;;8.25;6.50;;;;;7.09;76.19;99990.84;4997394;28;46269;-73
2022/01/09 11:14:03;;;;;;;;;3.00;3.00;;;;;6.92;76.78;99949.66;4996539;28;45376;-72
2022/01/09 11:16:33;;;;;;;;;2.00;2.00;;;;;7.05;76.52;99965.47;4996820;28;45500;-74
2022/01/09 11:19:13;;;;;;;;;1.25;1.00;;;;;7.12;75.94;99979.50;4997009;28;45404;-74
2022/01/09 11:21:45;;;;;;;;;7.50;4.00;;;;;7.10;74.85;99981.25;4996471;28;45444;-73
2022/01/09 11:24:10;;;;;;;;;2.00;0.75;;;;;7.09;75.31;99984.72;4996635;28;45327;-75
2022/01/09 11:26:59;;;;;;;;;2.00;2.00;;;;;7.10;75.29;99971.66;4996585;28;45379;-75
2022/01/09 11:30:22;;;;;;;;;2.50;2.50;;;;;7.10;75.17;99968.16;4995919;28;45374;-74
2022/01/09 11:33:24;;;;;;;;;5.00;2.00;;;;;7.41;75.90;99967.53;4991171;28;46349;-73
2022/01/09 11:36:09;;;;;;;;;6.25;5.75;;;;;7.90;74.15;99973.09;4993463;28;45324;-75
2022/01/09 11:38:59;;;;;;;;;5.00;5.00;;;;;8.21;72.52;99953.16;4997229;28;45297;-75
2022/01/09 11:41:33;;;;;;;;;20.75;19.00;;;;;8.30;71.73;99960.22;4998804;28;45453;-75